sensor_id;sensor_type;location;lat;lon;timestamp;pressure;altitude;pressure_sealevel;temperature;humidity
46023;BME280;31756;47.936;16.224;2022-11-15T00:02:10;98911.16;;;6.11;100.00
46023;BME280;31756;47.936;16.224;2022-11-15T00:04:54;98930.63;;;6.06;100.00
46023;BME280;31756;47.936;16.224;2022-11-15T00:07:39;98922.13;;;6.01;100.00
46023;BME280;31756;47.936;16.224;2022-11-15T00:10:23;98922.97;;;5.96;100.00
46023;BME280;31756;47.936;16.224;2022-11-15T00:13:12;98912.78;;;5.96;100.00
46023;BME280;31756;47.936;16.224;2022-11-15T00:16:00;98925.50;;;5.96;100.00
46023;BME280;31756;47.936;16.224;2022-11-15T00:18:45;98922.09;;;5.99;100.00
46023;BME280;31756;47.936;16.224;2022-11-15T00:21:29;98901.66;;;5.81;100.00
46023;BME280;31756;47.936;16.224;2022-11-15T00:24:13;98910.19;;;5.87;100.00
46023;BME280;31756;47.936;16.224;2022-11-15T00:26:57;98911.88;;;5.85;100.00
46023;BME280;31756;47.936;16.224;2022-11-15T00:29:41;98899.97;;;5.83;100.00
46023;BME280;31756;47.936;16.224;2022-11-15T00:32:31;98888.06;;;5.76;100.00
46023;BME280;31756;47.936;16.224;2022-11-15T00:35:15;98879.59;;;5.75;100.00
46023;BME280;31756;47.936;16.224;2022-11-15T00:37:59;98899.97;;;5.86;100.00
46023;BME280;31756;47.936;16.224;2022-11-15T00:40:44;98899.97;;;5.86;100.00
46023;BME280;31756;47.936;16.224;2022-11-15T00:43:29;98904.22;;;5.81;100.00
46023;BME280;31756;47.936;16.224;2022-11-15T00:46:13;98871.09;;;5.75;100.00
46023;BME280;31756;47.936;16.224;2022-11-15T00:48:58;98878.75;;;5.79;100.00
46023;BME280;31756;47.936;16.224;2022-11-15T00:51:42;98888.94;;;5.84;100.00
46023;BME280;31756;47.936;16.224;2022-11-15T00:54:26;98894.94;;;5.89;100.00
46023;BME280;31756;47.936;16.224;2022-11-15T00:57:11;98866.03;;;5.76;100.00
46023;BME280;31756;47.936;16.224;2022-11-15T00:59:55;98871.97;;;5.81;100.00
46023;BME280;31756;47.936;16.224;2022-11-15T01:02:40;98885.63;;;5.92;100.00
46023;BME280;31756;47.936;16.224;2022-11-15T01:05:24;98880.53;;;5.89;100.00
46023;BME280;31756;47.936;16.224;2022-11-15T01:08:15;98858.47;;;5.88;100.00
46023;BME280;31756;47.936;16.224;2022-11-15T01:11:03;98870.38;;;5.94;100.00
46023;BME280;31756;47.936;16.224;2022-11-15T01:13:48;98868.63;;;5.85;100.00
46023;BME280;31756;47.936;16.224;2022-11-15T01:16:33;98858.41;;;5.82;100.00
46023;BME280;31756;47.936;16.224;2022-11-15T01:19:17;98843.13;;;5.72;100.00
46023;BME280;31756;47.936;16.224;2022-11-15T01:22:02;98864.34;;;5.86;100.00
46023;BME280;31756;47.936;16.224;2022-11-15T01:24:46;98842.28;;;5.71;100.00
46023;BME280;31756;47.936;16.224;2022-11-15T01:27:30;98866.91;;;5.84;100.00
46023;BME280;31756;47.936;16.224;2022-11-15T01:30:14;98838.88;;;5.75;100.00
46023;BME280;31756;47.936;16.224;2022-11-15T01:32:58;98845.78;;;5.93;100.00
46023;BME280;31756;47.936;16.224;2022-11-15T01:35:42;98858.41;;;5.82;100.00
46023;BME280;31756;47.936;16.224;2022-11-15T01:38:26;98836.34;;;5.74;100.00
46023;BME280;31756;47.936;16.224;2022-11-15T01:41:19;98850.75;;;5.78;100.00
46023;BME280;31756;47.936;16.224;2022-11-15T01:44:40;98856.69;;;5.81;100.00
46023;BME280;31756;47.936;16.224;2022-11-15T01:47:29;98854.19;;;5.80;100.00
46023;BME280;31756;47.936;16.224;2022-11-15T01:50:18;98832.09;;;5.71;100.00
46023;BME280;31756;47.936;16.224;2022-11-15T01:53:05;98838.03;;;5.72;100.00
46023;BME280;31756;47.936;16.224;2022-11-15T01:55:49;98847.34;;;5.71;100.00
46023;BME280;31756;47.936;16.224;2022-11-15T01:58:34;98843.09;;;5.66;100.00
46023;BME280;31756;47.936;16.224;2022-11-15T02:01:19;98797.28;;;5.50;100.00
46023;BME280;31756;47.936;16.224;2022-11-15T02:04:15;98809.97;;;5.53;100.00
46023;BME280;31756;47.936;16.224;2022-11-15T02:07:03;98825.28;;;5.63;100.00
46023;BME280;31756;47.936;16.224;2022-11-15T02:09:49;98824.41;;;5.55;100.00
46023;BME280;31756;47.936;16.224;2022-11-15T02:12:33;98826.13;;;5.56;100.00
46023;BME280;31756;47.936;16.224;2022-11-15T02:15:18;98826.09;;;5.51;100.00
46023;BME280;31756;47.936;16.224;2022-11-15T02:18:26;98824.41;;;5.51;100.00
46023;BME280;31756;47.936;16.224;2022-11-15T02:21:33;98803.09;;;5.31;100.00
46023;BME280;31756;47.936;16.224;2022-11-15T02:30:41;98825.09;;;5.26;100.00
46023;BME280;31756;47.936;16.224;2022-11-15T02:33:39;98825.97;;;5.28;100.00
46023;BME280;31756;47.936;16.224;2022-11-15T02:36:31;98833.59;;;5.28;100.00
46023;BME280;31756;47.936;16.224;2022-11-15T02:39:26;98833.59;;;5.25;100.00
46023;BME280;31756;47.936;16.224;2022-11-15T02:42:21;98834.44;;;5.24;100.00
46023;BME280;31756;47.936;16.224;2022-11-15T02:45:35;98825.91;;;5.19;100.00
46023;BME280;31756;47.936;16.224;2022-11-15T02:48:21;98820.03;;;5.26;100.00
46023;BME280;31756;47.936;16.224;2022-11-15T02:51:06;98830.19;;;5.25;100.00
46023;BME280;31756;47.936;16.224;2022-11-15T02:53:51;98827.69;;;5.29;100.00
46023;BME280;31756;47.936;16.224;2022-11-15T02:56:35;98830.22;;;5.31;100.00
46023;BME280;31756;47.936;16.224;2022-11-15T03:05:43;98825.16;;;5.35;100.00
46023;BME280;31756;47.936;16.224;2022-11-15T03:08:30;98825.19;;;5.40;100.00
46023;BME280;31756;47.936;16.224;2022-11-15T03:11:18;98815.03;;;5.44;100.00
46023;BME280;31756;47.936;16.224;2022-11-15T03:17:01;98806.59;;;5.50;100.00
46023;BME280;31756;47.936;16.224;2022-11-15T03:20:15;98808.25;;;5.48;100.00
46023;BME280;31756;47.936;16.224;2022-11-15T03:23:04;98807.44;;;5.49;100.00
46023;BME280;31756;47.936;16.224;2022-11-15T03:25:50;98805.72;;;5.52;100.00
46023;BME280;31756;47.936;16.224;2022-11-15T03:28:38;98780.28;;;5.42;100.00
46023;BME280;31756;47.936;16.224;2022-11-15T03:31:28;98797.28;;;5.55;100.00
46023;BME280;31756;47.936;16.224;2022-11-15T03:34:39;98802.34;;;5.57;100.00
46023;BME280;31756;47.936;16.224;2022-11-15T03:37:32;98799.84;;;5.63;100.00
46023;BME280;31756;47.936;16.224;2022-11-15T03:40:22;98795.59;;;5.59;100.00
46023;BME280;31756;47.936;16.224;2022-11-15T03:46:29;98767.59;;;5.46;100.00
46023;BME280;31756;47.936;16.224;2022-11-15T03:49:21;98763.38;;;5.47;100.00
46023;BME280;31756;47.936;16.224;2022-11-15T03:52:06;98765.91;;;5.47;100.00
46023;BME280;31756;47.936;16.224;2022-11-15T03:54:54;98759.13;;;5.46;100.00
46023;BME280;31756;47.936;16.224;2022-11-15T03:57:38;98775.22;;;5.49;100.00
46023;BME280;31756;47.936;16.224;2022-11-15T04:00:22;98777.75;;;5.48;100.00
46023;BME280;31756;47.936;16.224;2022-11-15T04:03:06;98774.38;;;5.57;100.00
46023;BME280;31756;47.936;16.224;2022-11-15T04:05:54;98782.88;;;5.62;100.00
46023;BME280;31756;47.936;16.224;2022-11-15T04:08:38;98751.47;;;5.52;100.00
46023;BME280;31756;47.936;16.224;2022-11-15T04:11:22;98774.41;;;5.61;100.00
46023;BME280;31756;47.936;16.224;2022-11-15T04:14:06;98775.31;;;5.72;100.00
46023;BME280;31756;47.936;16.224;2022-11-15T04:16:50;98752.38;;;5.59;100.00
46023;BME280;31756;47.936;16.224;2022-11-15T04:19:34;98749.88;;;5.77;100.00
46023;BME280;31756;47.936;16.224;2022-11-15T04:22:37;98762.59;;;5.86;100.00
46023;BME280;31756;47.936;16.224;2022-11-15T04:25:41;98760.03;;;5.81;100.00
46023;BME280;31756;47.936;16.224;2022-11-15T04:28:26;98760.91;;;5.85;100.00
46023;BME280;31756;47.936;16.224;2022-11-15T04:31:10;98753.28;;;5.83;100.00
46023;BME280;31756;47.936;16.224;2022-11-15T04:33:54;98729.56;;;5.92;100.00
46023;BME280;31756;47.936;16.224;2022-11-15T04:36:38;98731.25;;;5.88;100.00
46023;BME280;31756;47.936;16.224;2022-11-15T04:39:42;98749.06;;;6.11;100.00
46023;BME280;31756;47.936;16.224;2022-11-15T04:42:27;98746.53;;;6.05;100.00
46023;BME280;31756;47.936;16.224;2022-11-15T04:45:11;98749.09;;;6.05;100.00
46023;BME280;31756;47.936;16.224;2022-11-15T04:47:54;98742.31;;;6.10;100.00
46023;BME280;31756;47.936;16.224;2022-11-15T04:50:39;98737.22;;;6.13;100.00
46023;BME280;31756;47.936;16.224;2022-11-15T04:53:23;98741.47;;;6.22;100.00
46023;BME280;31756;47.936;16.224;2022-11-15T04:56:07;98707.53;;;6.18;100.00
46023;BME280;31756;47.936;16.224;2022-11-15T04:58:52;98726.16;;;6.51;100.00
46023;BME280;31756;47.936;16.224;2022-11-15T05:01:37;98720.19;;;6.64;100.00
46023;BME280;31756;47.936;16.224;2022-11-15T05:04:20;98712.59;;;6.39;100.00
46023;BME280;31756;47.936;16.224;2022-11-15T05:07:05;98717.69;;;6.38;100.00
46023;BME280;31756;47.936;16.224;2022-11-15T05:09:49;98707.53;;;6.32;100.00
46023;BME280;31756;47.936;16.224;2022-11-15T05:12:34;98704.13;;;6.18;100.00
46023;BME280;31756;47.936;16.224;2022-11-15T05:15:19;98723.66;;;6.19;100.00
46023;BME280;31756;47.936;16.224;2022-11-15T05:18:03;98727.88;;;6.20;100.00
46023;BME280;31756;47.936;16.224;2022-11-15T05:20:48;98715.16;;;6.21;100.00
46023;BME280;31756;47.936;16.224;2022-11-15T05:23:33;98720.25;;;6.18;100.00
46023;BME280;31756;47.936;16.224;2022-11-15T05:26:18;98693.97;;;6.06;100.00
46023;BME280;31756;47.936;16.224;2022-11-15T05:29:02;98714.31;;;6.21;100.00
46023;BME280;31756;47.936;16.224;2022-11-15T05:31:46;98721.09;;;6.19;100.00
46023;BME280;31756;47.936;16.224;2022-11-15T05:34:32;98717.69;;;6.20;100.00
46023;BME280;31756;47.936;16.224;2022-11-15T05:37:16;98705.81;;;6.17;100.00
46023;BME280;31756;47.936;16.224;2022-11-15T05:40:01;98699.91;;;6.18;100.00
46023;BME280;31756;47.936;16.224;2022-11-15T05:42:45;98707.53;;;6.23;100.00
46023;BME280;31756;47.936;16.224;2022-11-15T05:45:31;98700.72;;;6.20;100.00
46023;BME280;31756;47.936;16.224;2022-11-15T05:48:16;98690.56;;;6.13;100.00
46023;BME280;31756;47.936;16.224;2022-11-15T05:51:02;98710.91;;;6.17;100.00
46023;BME280;31756;47.936;16.224;2022-11-15T05:53:49;98708.38;;;6.10;100.00
46023;BME280;31756;47.936;16.224;2022-11-15T05:56:33;98715.16;;;6.15;100.00
46023;BME280;31756;47.936;16.224;2022-11-15T05:59:18;98710.06;;;6.09;100.00
46023;BME280;31756;47.936;16.224;2022-11-15T06:02:03;98722.78;;;6.17;100.00
46023;BME280;31756;47.936;16.224;2022-11-15T06:04:47;98720.25;;;6.18;100.00
46023;BME280;31756;47.936;16.224;2022-11-15T06:07:31;98709.22;;;6.19;100.00
46023;BME280;31756;47.936;16.224;2022-11-15T06:10:16;98687.16;;;6.05;100.00
46023;BME280;31756;47.936;16.224;2022-11-15T06:13:03;98706.69;;;6.13;100.00
46023;BME280;31756;47.936;16.224;2022-11-15T06:15:48;98689.69;;;6.08;100.00
46023;BME280;31756;47.936;16.224;2022-11-15T06:18:33;98709.22;;;6.16;100.00
46023;BME280;31756;47.936;16.224;2022-11-15T06:21:17;98698.19;;;5.99;100.00
46023;BME280;31756;47.936;16.224;2022-11-15T06:24:02;98711.75;;;6.07;100.00
46023;BME280;31756;47.936;16.224;2022-11-15T06:26:47;98714.31;;;6.13;100.00
46023;BME280;31756;47.936;16.224;2022-11-15T06:29:31;98709.22;;;6.16;100.00
46023;BME280;31756;47.936;16.224;2022-11-15T06:32:15;98706.69;;;6.18;100.00
46023;BME280;31756;47.936;16.224;2022-11-15T06:34:59;98714.31;;;6.13;100.00
46023;BME280;31756;47.936;16.224;2022-11-15T06:37:44;98688.84;;;6.03;100.00
46023;BME280;31756;47.936;16.224;2022-11-15T06:40:28;98705.84;;;6.14;100.00
46023;BME280;31756;47.936;16.224;2022-11-15T06:43:12;98681.22;;;6.07;100.00
46023;BME280;31756;47.936;16.224;2022-11-15T06:46:01;98701.56;;;6.25;100.00
46023;BME280;31756;47.936;16.224;2022-11-15T06:48:46;98708.34;;;6.25;100.00
46023;BME280;31756;47.936;16.224;2022-11-15T06:51:31;98707.50;;;6.26;100.00
46023;BME280;31756;47.936;16.224;2022-11-15T06:54:15;98712.63;;;6.27;100.00
46023;BME280;31756;47.936;16.224;2022-11-15T06:57:00;98691.41;;;6.16;100.00
46023;BME280;31756;47.936;16.224;2022-11-15T06:59:43;98712.63;;;6.32;100.00
46023;BME280;31756;47.936;16.224;2022-11-15T07:02:28;98717.72;;;6.36;100.00
46023;BME280;31756;47.936;16.224;2022-11-15T07:05:12;98690.53;;;6.31;100.00
46023;BME280;31756;47.936;16.224;2022-11-15T07:07:57;98710.06;;;6.39;100.00
46023;BME280;31756;47.936;16.224;2022-11-15T07:10:41;98702.41;;;6.20;100.00
46023;BME280;31756;47.936;16.224;2022-11-15T07:13:26;98689.69;;;6.17;100.00
46023;BME280;31756;47.936;16.224;2022-11-15T07:16:11;98693.94;;;6.22;100.00
46023;BME280;31756;47.936;16.224;2022-11-15T07:18:56;98713.44;;;6.32;100.00
46023;BME280;31756;47.936;16.224;2022-11-15T07:21:40;98712.63;;;6.32;100.00
46023;BME280;31756;47.936;16.224;2022-11-15T07:24:24;98713.44;;;6.32;100.00
46023;BME280;31756;47.936;16.224;2022-11-15T07:27:08;98704.97;;;6.33;100.00
46023;BME280;31756;47.936;16.224;2022-11-15T07:29:52;98712.59;;;6.35;100.00
46023;BME280;31756;47.936;16.224;2022-11-15T07:32:36;98713.47;;;6.40;100.00
46023;BME280;31756;47.936;16.224;2022-11-15T07:35:20;98715.16;;;6.36;100.00
46023;BME280;31756;47.936;16.224;2022-11-15T07:38:04;98687.97;;;6.32;100.00
46023;BME280;31756;47.936;16.224;2022-11-15T07:40:59;98704.09;;;6.48;100.00
46023;BME280;31756;47.936;16.224;2022-11-15T07:43:45;98685.44;;;6.40;100.00
46023;BME280;31756;47.936;16.224;2022-11-15T07:46:29;98704.94;;;6.55;100.00
46023;BME280;31756;47.936;16.224;2022-11-15T07:49:14;98698.13;;;6.63;100.00
46023;BME280;31756;47.936;16.224;2022-11-15T07:51:58;98692.19;;;6.65;100.00
46023;BME280;31756;47.936;16.224;2022-11-15T07:54:41;98665.03;;;6.57;100.00
46023;BME280;31756;47.936;16.224;2022-11-15T07:57:25;98695.56;;;6.67;100.00
46023;BME280;31756;47.936;16.224;2022-11-15T08:00:11;98683.66;;;6.72;100.00
46023;BME280;31756;47.936;16.224;2022-11-15T08:03:10;98675.19;;;6.69;100.00
46023;BME280;31756;47.936;16.224;2022-11-15T08:05:54;98665.84;;;6.65;100.00
46023;BME280;31756;47.936;16.224;2022-11-15T08:08:39;98673.50;;;6.69;100.00
46023;BME280;31756;47.936;16.224;2022-11-15T08:11:23;98667.56;;;6.70;100.00
46023;BME280;31756;47.936;16.224;2022-11-15T08:14:08;98691.28;;;6.75;100.00
46023;BME280;31756;47.936;16.224;2022-11-15T08:16:52;98698.13;;;6.64;100.00
46023;BME280;31756;47.936;16.224;2022-11-15T08:19:36;98674.34;;;6.68;100.00
46023;BME280;31756;47.936;16.224;2022-11-15T08:22:21;98695.53;;;6.81;100.00
46023;BME280;31756;47.936;16.224;2022-11-15T08:25:05;98692.97;;;6.79;100.00
46023;BME280;31756;47.936;16.224;2022-11-15T08:27:52;98668.38;;;6.74;100.00
46023;BME280;31756;47.936;16.224;2022-11-15T08:30:41;98677.66;;;6.84;100.00
46023;BME280;31756;47.936;16.224;2022-11-15T08:33:25;98682.75;;;6.90;100.00
46023;BME280;31756;47.936;16.224;2022-11-15T08:36:15;98687.84;;;6.88;100.00
46023;BME280;31756;47.936;16.224;2022-11-15T08:38:59;98670.88;;;6.84;100.00
46023;BME280;31756;47.936;16.224;2022-11-15T08:41:43;98685.25;;;7.04;100.00
46023;BME280;31756;47.936;16.224;2022-11-15T08:44:29;98680.19;;;6.95;100.00
46023;BME280;31756;47.936;16.224;2022-11-15T08:47:13;98682.69;;;7.08;100.00
46023;BME280;31756;47.936;16.224;2022-11-15T08:49:57;98672.47;;;7.13;100.00
46023;BME280;31756;47.936;16.224;2022-11-15T08:52:41;98658.06;;;7.04;100.00
46023;BME280;31756;47.936;16.224;2022-11-15T08:55:25;98675.81;;;7.24;100.00
46023;BME280;31756;47.936;16.224;2022-11-15T08:58:09;98672.44;;;7.14;100.00
46023;BME280;31756;47.936;16.224;2022-11-15T09:00:54;98668.28;;;7.00;100.00
46023;BME280;31756;47.936;16.224;2022-11-15T09:03:40;98669.75;;;7.45;100.00
46023;BME280;31756;47.936;16.224;2022-11-15T09:06:24;98651.88;;;7.51;100.00
46023;BME280;31756;47.936;16.224;2022-11-15T09:09:09;98665.91;;;8.05;100.00
46023;BME280;31756;47.936;16.224;2022-11-15T09:11:53;98648.91;;;8.04;100.00
46023;BME280;31756;47.936;16.224;2022-11-15T09:14:37;98638.19;;;7.59;100.00
46023;BME280;31756;47.936;16.224;2022-11-15T09:17:21;98655.13;;;7.69;100.00
46023;BME280;31756;47.936;16.224;2022-11-15T09:20:06;98630.38;;;7.80;100.00
46023;BME280;31756;47.936;16.224;2022-11-15T09:22:50;98644.38;;;8.35;100.00
46023;BME280;31756;47.936;16.224;2022-11-15T09:25:34;98633.16;;;8.49;100.00
46023;BME280;31756;47.936;16.224;2022-11-15T09:28:19;98633.31;;;8.33;100.00
46023;BME280;31756;47.936;16.224;2022-11-15T09:31:05;98614.88;;;8.00;100.00
46023;BME280;31756;47.936;16.224;2022-11-15T09:33:50;98639.53;;;8.04;100.00
46023;BME280;31756;47.936;16.224;2022-11-15T09:36:34;98618.34;;;7.96;100.00
46023;BME280;31756;47.936;16.224;2022-11-15T09:39:18;98630.81;;;8.23;100.00
46023;BME280;31756;47.936;16.224;2022-11-15T09:45:34;98621.44;;;8.30;100.00
46023;BME280;31756;47.936;16.224;2022-11-15T09:48:43;98622.25;;;8.32;100.00
46023;BME280;31756;47.936;16.224;2022-11-15T09:51:39;98600.13;;;8.34;100.00
46023;BME280;31756;47.936;16.224;2022-11-15T09:56:44;98592.41;;;8.37;100.00
46023;BME280;31756;47.936;16.224;2022-11-15T10:04:42;98605.28;;;8.26;100.00
46023;BME280;31756;47.936;16.224;2022-11-15T10:07:28;98601.97;;;8.18;100.00
46023;BME280;31756;47.936;16.224;2022-11-15T10:10:02;98601.16;;;8.12;100.00
46023;BME280;31756;47.936;16.224;2022-11-15T10:12:30;98593.72;;;7.89;100.00
46023;BME280;31756;47.936;16.224;2022-11-15T10:15:14;98570.88;;;7.75;100.00
46023;BME280;31756;47.936;16.224;2022-11-15T10:20:53;98562.13;;;8.01;100.00
46023;BME280;31756;47.936;16.224;2022-11-15T10:23:22;98540.06;;;7.94;100.00
46023;BME280;31756;47.936;16.224;2022-11-15T10:25:51;98556.91;;;8.11;100.00
46023;BME280;31756;47.936;16.224;2022-11-15T10:28:29;98553.59;;;8.03;100.00
46023;BME280;31756;47.936;16.224;2022-11-15T10:30:57;98536.63;;;7.98;100.00
46023;BME280;31756;47.936;16.224;2022-11-15T10:33:36;98555.28;;;8.06;100.00
46023;BME280;31756;47.936;16.224;2022-11-15T10:46:33;98528.09;;;7.99;100.00
46023;BME280;31756;47.936;16.224;2022-11-15T10:49:15;98534.09;;;7.95;100.00
46023;BME280;31756;47.936;16.224;2022-11-15T10:54:47;98523.81;;;8.02;100.00
46023;BME280;31756;47.936;16.224;2022-11-15T10:57:17;98523.72;;;8.11;100.00
46023;BME280;31756;47.936;16.224;2022-11-15T11:00:00;98487.31;;;7.94;100.00
46023;BME280;31756;47.936;16.224;2022-11-15T11:02:30;98513.50;;;8.11;100.00
46023;BME280;31756;47.936;16.224;2022-11-15T11:04:57;98509.28;;;8.10;100.00
46023;BME280;31756;47.936;16.224;2022-11-15T11:07:27;98492.41;;;7.97;100.00
46023;BME280;31756;47.936;16.224;2022-11-15T11:12:39;98506.03;;;7.96;100.00
46023;BME280;31756;47.936;16.224;2022-11-15T11:15:12;98479.72;;;7.88;100.00
46023;BME280;31756;47.936;16.224;2022-11-15T11:20:22;98482.16;;;8.00;100.00
46023;BME280;31756;47.936;16.224;2022-11-15T11:28:18;98469.38;;;7.99;100.00
46023;BME280;31756;47.936;16.224;2022-11-15T11:31:11;98488.00;;;8.10;100.00
46023;BME280;31756;47.936;16.224;2022-11-15T11:36:35;98466.63;;;8.18;100.00
46023;BME280;31756;47.936;16.224;2022-11-15T11:39:14;98461.47;;;8.21;100.00
46023;BME280;31756;47.936;16.224;2022-11-15T11:41:58;98462.38;;;8.17;100.00
46023;BME280;31756;47.936;16.224;2022-11-15T11:47:14;98455.41;;;8.28;100.00
46023;BME280;31756;47.936;16.224;2022-11-15T11:50:10;98448.63;;;8.31;100.00
46023;BME280;31756;47.936;16.224;2022-11-15T11:52:56;98441.81;;;8.31;100.00
46023;BME280;31756;47.936;16.224;2022-11-15T11:55:36;98445.94;;;8.40;100.00
46023;BME280;31756;47.936;16.224;2022-11-15T11:58:17;98435.00;;;8.32;100.00
46023;BME280;31756;47.936;16.224;2022-11-15T12:00:50;98425.63;;;8.31;100.00
46023;BME280;31756;47.936;16.224;2022-11-15T12:03:24;98422.91;;;8.43;100.00
46023;BME280;31756;47.936;16.224;2022-11-15T12:05:56;98412.75;;;8.40;100.00
46023;BME280;31756;47.936;16.224;2022-11-15T12:13:57;98399.91;;;8.43;100.00
46023;BME280;31756;47.936;16.224;2022-11-15T12:16:27;98390.56;;;8.40;100.00
46023;BME280;31756;47.936;16.224;2022-11-15T12:18:58;98382.09;;;8.40;100.00
46023;BME280;31756;47.936;16.224;2022-11-15T12:24:04;98387.22;;;8.38;100.00
46023;BME280;31756;47.936;16.224;2022-11-15T12:26:45;98382.09;;;8.40;100.00
46023;BME280;31756;47.936;16.224;2022-11-15T12:29:23;98377.84;;;8.37;100.00
46023;BME280;31756;47.936;16.224;2022-11-15T12:31:54;98355.88;;;8.24;100.00
46023;BME280;31756;47.936;16.224;2022-11-15T12:36:50;98368.69;;;8.21;100.00
46023;BME280;31756;47.936;16.224;2022-11-15T12:39:17;98366.19;;;8.16;100.00
46023;BME280;31756;47.936;16.224;2022-11-15T12:47:25;98342.53;;;8.05;100.00
46023;BME280;31756;47.936;16.224;2022-11-15T12:49:50;98361.88;;;8.20;100.00
46023;BME280;31756;47.936;16.224;2022-11-15T12:52:17;98358.53;;;8.16;100.00
46023;BME280;31756;47.936;16.224;2022-11-15T12:57:31;98355.31;;;8.05;100.00
46023;BME280;31756;47.936;16.224;2022-11-15T13:00:36;98353.59;;;8.04;100.00
46023;BME280;31756;47.936;16.224;2022-11-15T13:03:15;98346.78;;;8.05;100.00
46023;BME280;31756;47.936;16.224;2022-11-15T13:08:07;98337.56;;;7.96;100.00
46023;BME280;31756;47.936;16.224;2022-11-15T13:10:33;98340.09;;;7.96;100.00
46023;BME280;31756;47.936;16.224;2022-11-15T13:13:00;98340.91;;;7.98;100.00
46023;BME280;31756;47.936;16.224;2022-11-15T13:20:49;98333.47;;;7.81;100.00
46023;BME280;31756;47.936;16.224;2022-11-15T13:23:15;98329.22;;;7.84;100.00
46023;BME280;31756;47.936;16.224;2022-11-15T13:26:13;98326.59;;;7.88;100.00
46023;BME280;31756;47.936;16.224;2022-11-15T13:28:44;98329.16;;;7.85;100.00
46023;BME280;31756;47.936;16.224;2022-11-15T13:31:18;98324.97;;;7.82;100.00
46023;BME280;31756;47.936;16.224;2022-11-15T13:33:48;98325.81;;;7.83;100.00
46023;BME280;31756;47.936;16.224;2022-11-15T13:36:15;98328.41;;;7.80;100.00
46023;BME280;31756;47.936;16.224;2022-11-15T13:38:43;98308.09;;;7.71;100.00
46023;BME280;31756;47.936;16.224;2022-11-15T13:41:20;98298.69;;;7.74;100.00
46023;BME280;31756;47.936;16.224;2022-11-15T13:43:48;98312.22;;;7.81;100.00
46023;BME280;31756;47.936;16.224;2022-11-15T13:48:55;98287.66;;;7.72;100.00
46023;BME280;31756;47.936;16.224;2022-11-15T13:56:36;98308.78;;;7.84;100.00
46023;BME280;31756;47.936;16.224;2022-11-15T13:59:25;98306.19;;;7.87;100.00
46023;BME280;31756;47.936;16.224;2022-11-15T14:01:53;98304.91;;;8.18;100.00
46023;BME280;31756;47.936;16.224;2022-11-15T14:04:22;98304.78;;;8.25;100.00
46023;BME280;31756;47.936;16.224;2022-11-15T14:06:52;98292.22;;;8.13;100.00
46023;BME280;31756;47.936;16.224;2022-11-15T14:09:31;98300.78;;;8.09;100.00
46023;BME280;31756;47.936;16.224;2022-11-15T14:11:58;98299.09;;;8.07;100.00
46023;BME280;31756;47.936;16.224;2022-11-15T14:14:26;98297.38;;;8.10;100.00
46023;BME280;31756;47.936;16.224;2022-11-15T14:16:58;98291.47;;;8.05;100.00
46023;BME280;31756;47.936;16.224;2022-11-15T14:22:15;98285.53;;;8.03;100.00
46023;BME280;31756;47.936;16.224;2022-11-15T14:27:31;98266.13;;;7.92;100.00
46023;BME280;31756;47.936;16.224;2022-11-15T14:29:57;98278.91;;;7.90;100.00
46023;BME280;31756;47.936;16.224;2022-11-15T14:32:25;98274.66;;;7.92;100.00
46023;BME280;31756;47.936;16.224;2022-11-15T14:34:56;98266.13;;;7.93;100.00
46023;BME280;31756;47.936;16.224;2022-11-15T14:37:30;98251.72;;;7.89;100.00
46023;BME280;31756;47.936;16.224;2022-11-15T14:40:05;98262.63;;;7.99;100.00
46023;BME280;31756;47.936;16.224;2022-11-15T14:42:31;98252.41;;;7.99;100.00
46023;BME280;31756;47.936;16.224;2022-11-15T14:44:57;98218.75;;;7.75;100.00
46023;BME280;31756;47.936;16.224;2022-11-15T14:47:23;98255.88;;;7.95;100.00
46023;BME280;31756;47.936;16.224;2022-11-15T14:49:48;98258.31;;;8.02;100.00
46023;BME280;31756;47.936;16.224;2022-11-15T14:52:24;98254.03;;;8.04;100.00
46023;BME280;31756;47.936;16.224;2022-11-15T14:54:50;98254.94;;;8.02;100.00
46023;BME280;31756;47.936;16.224;2022-11-15T14:57:17;98252.28;;;8.08;100.00
46023;BME280;31756;47.936;16.224;2022-11-15T14:59:42;98234.25;;;8.18;100.00
46023;BME280;31756;47.936;16.224;2022-11-15T15:02:15;98236.75;;;8.23;100.00
46023;BME280;31756;47.936;16.224;2022-11-15T15:04:41;98239.44;;;8.12;100.00
46023;BME280;31756;47.936;16.224;2022-11-15T15:07:06;98236.97;;;8.08;100.00
46023;BME280;31756;47.936;16.224;2022-11-15T15:09:33;98219.34;;;7.93;100.00
46023;BME280;31756;47.936;16.224;2022-11-15T15:11:58;98227.75;;;7.98;100.00
46023;BME280;31756;47.936;16.224;2022-11-15T15:14:24;98244.88;;;7.93;100.00
46023;BME280;31756;47.936;16.224;2022-11-15T15:16:50;98236.63;;;7.74;100.00
46023;BME280;31756;47.936;16.224;2022-11-15T15:19:15;98236.66;;;7.71;100.00
46023;BME280;31756;47.936;16.224;2022-11-15T15:21:41;98238.31;;;7.73;100.00
46023;BME280;31756;47.936;16.224;2022-11-15T15:24:13;98212.00;;;7.70;100.00
46023;BME280;31756;47.936;16.224;2022-11-15T15:26:40;98217.91;;;7.75;100.00
46023;BME280;31756;47.936;16.224;2022-11-15T15:29:06;98222.94;;;7.78;100.00
46023;BME280;31756;47.936;16.224;2022-11-15T15:31:34;98222.22;;;7.70;100.00
46023;BME280;31756;47.936;16.224;2022-11-15T15:34:00;98220.47;;;7.73;100.00
46023;BME280;31756;47.936;16.224;2022-11-15T15:36:25;98212.06;;;7.67;100.00
46023;BME280;31756;47.936;16.224;2022-11-15T15:38:51;98211.16;;;7.71;100.00
46023;BME280;31756;47.936;16.224;2022-11-15T15:41:18;98201.88;;;7.67;100.00
46023;BME280;31756;47.936;16.224;2022-11-15T15:43:44;98205.13;;;7.76;100.00
46023;BME280;31756;47.936;16.224;2022-11-15T15:46:19;98188.25;;;7.66;100.00
46023;BME280;31756;47.936;16.224;2022-11-15T15:48:48;98205.94;;;7.77;100.00